Time;durP1;ratioP1;P1;durP2;ratioP2;P2;SDS_P1;SDS_P2;PMS_P1;PMS_P2;Temp;Humidity;BMP_temperature;BMP_pressure;BME280_temperature;BME280_humidity;BME280_pressure;Samples;Min_cycle;Max_cycle;Signal;HPM_P1;HPM_P2
2023/04/24 00:00:14;;;;;;;0.70;0.40;;;10.70;99.90;;;;;;5032975;28;20489;-36
2023/04/24 00:02:47;;;;;;;1.52;0.30;;;10.60;99.90;;;;;;5034525;28;20044;-36
2023/04/24 00:05:17;;;;;;;0.57;0.38;;;10.60;99.90;;;;;;5035038;28;20514;-36
2023/04/24 00:07:45;;;;;;;0.77;0.40;;;10.60;99.90;;;;;;5023358;28;20048;-36
2023/04/24 00:10:11;;;;;;;0.63;0.40;;;10.60;99.90;;;;;;5033902;28;20092;-36
2023/04/24 00:12:37;;;;;;;1.38;0.30;;;10.50;99.90;;;;;;5029383;28;20142;-37
2023/04/24 00:15:04;;;;;;;0.55;0.40;;;10.50;99.90;;;;;;5028382;28;20049;-36
2023/04/24 00:17:30;;;;;;;0.75;0.50;;;10.50;99.90;;;;;;5011980;28;20510;-36
2023/04/24 00:19:59;;;;;;;3.05;1.67;;;10.40;99.90;;;;;;5028460;28;20372;-36
2023/04/24 00:22:28;;;;;;;1.35;0.60;;;10.40;99.90;;;;;;5009487;28;20057;-35
2023/04/24 00:24:54;;;;;;;0.80;0.50;;;10.40;99.90;;;;;;5036174;28;20049;-37
2023/04/24 00:27:20;;;;;;;0.63;0.47;;;10.40;99.90;;;;;;5022003;28;21447;-50
2023/04/24 00:29:46;;;;;;;1.02;0.68;;;10.40;99.90;;;;;;5011398;28;20150;-37
2023/04/24 00:32:11;;;;;;;1.13;0.80;;;10.40;99.90;;;;;;5009306;28;20081;-35
2023/04/24 00:34:37;;;;;;;3.25;0.73;;;10.40;99.90;;;;;;5008849;28;20048;-35
2023/04/24 00:37:03;;;;;;;1.73;0.82;;;10.40;99.90;;;;;;5028916;28;20568;-37
2023/04/24 00:39:28;;;;;;;1.33;0.70;;;10.40;99.90;;;;;;5038513;28;21037;-36
2023/04/24 00:41:55;;;;;;;1.40;0.80;;;10.40;99.90;;;;;;5026462;28;20179;-35
2023/04/24 00:44:20;;;;;;;1.50;0.90;;;10.40;99.90;;;;;;5030409;28;20050;-36
2023/04/24 00:46:47;;;;;;;1.38;0.85;;;10.40;99.90;;;;;;5026742;28;20056;-35
2023/04/24 00:49:13;;;;;;;1.45;0.80;;;10.40;99.90;;;;;;5041365;28;20060;-36
2023/04/24 00:51:40;;;;;;;2.65;1.30;;;10.40;99.90;;;;;;5030713;28;20053;-36
2023/04/24 00:54:06;;;;;;;2.28;1.30;;;10.30;99.90;;;;;;5043200;28;20053;-41
2023/04/24 00:56:32;;;;;;;2.30;1.20;;;10.40;99.90;;;;;;5035064;28;20061;-48
2023/04/24 00:58:58;;;;;;;2.20;1.33;;;10.40;99.90;;;;;;5028159;28;20057;-37
2023/04/24 01:01:24;;;;;;;2.40;1.13;;;10.40;99.90;;;;;;5026323;28;20055;-36
2023/04/24 01:03:52;;;;;;;1.70;1.13;;;10.40;99.90;;;;;;5030022;28;20539;-36
2023/04/24 01:06:19;;;;;;;3.72;1.50;;;10.40;99.90;;;;;;5028474;28;20053;-36
2023/04/24 01:08:46;;;;;;;2.38;1.30;;;10.40;99.90;;;;;;5038768;28;20056;-36
2023/04/24 01:11:12;;;;;;;3.03;1.30;;;10.40;99.90;;;;;;5039835;28;20048;-36
2023/04/24 01:13:37;;;;;;;2.30;1.15;;;10.40;99.90;;;;;;5012057;28;20096;-36
2023/04/24 01:16:03;;;;;;;1.58;0.93;;;10.40;99.90;;;;;;5031430;28;20042;-36
2023/04/24 01:18:29;;;;;;;3.75;1.75;;;10.40;99.90;;;;;;5018355;28;20053;-36
2023/04/24 01:20:58;;;;;;;2.47;1.77;;;10.40;99.90;;;;;;5020669;28;20514;-35
2023/04/24 01:23:24;;;;;;;2.85;1.95;;;10.30;99.90;;;;;;5028538;28;20552;-36
2023/04/24 01:25:51;;;;;;;2.20;1.67;;;10.20;99.90;;;;;;5032225;28;20049;-36
2023/04/24 01:28:17;;;;;;;2.85;1.75;;;10.20;99.90;;;;;;5024361;28;20065;-37
2023/04/24 01:30:43;;;;;;;3.50;1.85;;;10.20;99.90;;;;;;5012801;28;20069;-36
2023/04/24 01:33:08;;;;;;;2.25;1.70;;;10.20;99.90;;;;;;5024071;28;20192;-46
2023/04/24 01:35:35;;;;;;;2.05;1.27;;;10.10;99.90;;;;;;5024933;28;20601;-35
2023/04/24 01:38:02;;;;;;;2.10;1.35;;;10.10;99.90;;;;;;5020105;28;20495;-37
2023/04/24 01:40:27;;;;;;;2.30;1.35;;;10.00;99.90;;;;;;5035247;28;20048;-36
2023/04/24 01:42:53;;;;;;;2.50;1.40;;;10.10;99.90;;;;;;5023941;28;20046;-37
2023/04/24 01:45:19;;;;;;;2.25;1.45;;;10.00;99.90;;;;;;5035381;28;20043;-37
2023/04/24 01:47:45;;;;;;;2.38;1.40;;;10.00;99.90;;;;;;5037520;28;20048;-36
2023/04/24 01:50:11;;;;;;;3.65;1.20;;;10.00;99.90;;;;;;5020103;28;20136;-37
2023/04/24 01:52:37;;;;;;;3.22;1.30;;;10.00;99.90;;;;;;5023079;28;20160;-36
2023/04/24 01:55:04;;;;;;;2.42;1.45;;;9.90;99.90;;;;;;5032163;28;20111;-36
2023/04/24 01:57:34;;;;;;;1.88;1.00;;;9.90;99.90;;;;;;5030708;28;20057;-36
2023/04/24 02:00:00;;;;;;;2.33;0.80;;;9.90;99.90;;;;;;5021127;28;20056;-36
2023/04/24 02:02:27;;;;;;;2.00;1.20;;;9.90;99.90;;;;;;5035649;28;20176;-36
2023/04/24 02:04:54;;;;;;;2.38;1.00;;;9.90;99.90;;;;;;5027375;28;20116;-36
2023/04/24 02:07:20;;;;;;;1.40;0.90;;;9.80;99.90;;;;;;5041668;28;20061;-36
2023/04/24 02:09:45;;;;;;;1.70;1.00;;;9.80;99.90;;;;;;5022565;28;20076;-38
2023/04/24 02:12:11;;;;;;;3.00;0.90;;;9.80;99.90;;;;;;5038100;28;20056;-35
2023/04/24 02:14:37;;;;;;;1.10;0.60;;;9.80;99.90;;;;;;5027690;28;20469;-38
2023/04/24 02:17:03;;;;;;;1.40;0.80;;;9.80;99.90;;;;;;5033531;28;20056;-36
2023/04/24 02:19:29;;;;;;;1.33;0.70;;;9.80;99.90;;;;;;5025187;28;20064;-36
2023/04/24 02:21:54;;;;;;;1.77;0.77;;;9.80;99.90;;;;;;5025786;28;20049;-36
2023/04/24 02:24:20;;;;;;;0.93;0.47;;;9.80;99.90;;;;;;5037813;28;20075;-36
2023/04/24 02:26:46;;;;;;;1.15;0.60;;;9.80;99.90;;;;;;5033254;28;20060;-36
2023/04/24 02:29:11;;;;;;;1.13;0.55;;;9.80;99.90;;;;;;5018215;28;20076;-37
2023/04/24 02:31:37;;;;;;;1.75;0.60;;;9.80;99.90;;;;;;5025573;28;20467;-36
2023/04/24 02:34:03;;;;;;;1.33;0.60;;;9.70;99.90;;;;;;5032687;28;20134;-35
2023/04/24 02:36:28;;;;;;;0.65;0.40;;;9.80;99.90;;;;;;5035330;28;20049;-36
2023/04/24 02:38:54;;;;;;;0.77;0.40;;;9.70;99.90;;;;;;5037123;28;20049;-36
2023/04/24 02:41:20;;;;;;;0.98;0.50;;;9.70;99.90;;;;;;5035409;28;20732;-37
2023/04/24 02:43:45;;;;;;;1.58;0.60;;;9.70;99.90;;;;;;5035200;28;20099;-35
2023/04/24 02:46:11;;;;;;;0.82;0.45;;;9.70;99.90;;;;;;5033955;28;20052;-35
2023/04/24 02:48:36;;;;;;;1.20;0.50;;;9.70;99.90;;;;;;5023979;28;20052;-36
2023/04/24 02:51:03;;;;;;;0.90;0.52;;;9.70;99.90;;;;;;5026730;28;20136;-37
2023/04/24 02:53:30;;;;;;;0.93;0.50;;;9.70;99.90;;;;;;5018418;28;20044;-36
2023/04/24 02:55:56;;;;;;;0.80;0.50;;;9.70;99.90;;;;;;5021967;28;20156;-36
2023/04/24 02:58:22;;;;;;;0.80;0.38;;;9.70;99.90;;;;;;5022999;28;20048;-36
2023/04/24 03:00:48;;;;;;;1.00;0.40;;;9.70;99.90;;;;;;5033965;28;20057;-36
2023/04/24 03:03:14;;;;;;;1.02;0.50;;;9.70;99.90;;;;;;5026361;28;20049;-36
2023/04/24 03:05:40;;;;;;;0.40;0.30;;;9.70;99.90;;;;;;5014899;28;20046;-37
2023/04/24 03:08:06;;;;;;;1.08;0.35;;;9.70;99.90;;;;;;5011929;28;20049;-36
2023/04/24 03:10:32;;;;;;;1.73;0.50;;;9.70;99.90;;;;;;5011767;28;20072;-37
2023/04/24 03:12:57;;;;;;;1.00;0.40;;;9.80;99.90;;;;;;5016425;28;20935;-37
2023/04/24 03:15:23;;;;;;;0.90;0.50;;;9.80;99.90;;;;;;5014598;28;20496;-38
2023/04/24 03:17:49;;;;;;;0.65;0.38;;;9.80;99.90;;;;;;5020392;28;20060;-36
2023/04/24 03:20:15;;;;;;;1.40;0.50;;;9.80;99.90;;;;;;5021983;28;20141;-37
2023/04/24 03:22:41;;;;;;;0.55;0.40;;;9.90;99.90;;;;;;5021851;28;20046;-36
2023/04/24 03:25:08;;;;;;;0.50;0.30;;;9.80;99.90;;;;;;5033466;28;20049;-37
2023/04/24 03:27:34;;;;;;;1.73;0.22;;;9.80;99.90;;;;;;5031603;28;20048;-36
2023/04/24 03:30:00;;;;;;;1.25;0.20;;;9.80;99.90;;;;;;5017583;28;20053;-36
2023/04/24 03:32:26;;;;;;;0.20;0.20;;;9.70;99.90;;;;;;5014959;28;20045;-37
2023/04/24 03:34:52;;;;;;;0.32;0.20;;;9.70;99.90;;;;;;5014241;28;20479;-36
2023/04/24 03:37:17;;;;;;;0.52;0.10;;;9.60;99.90;;;;;;5015018;28;20076;-36
2023/04/24 03:39:43;;;;;;;0.65;0.10;;;9.50;99.90;;;;;;5028503;28;20425;-37
2023/04/24 03:42:09;;;;;;;0.52;0.10;;;9.40;99.90;;;;;;5020679;28;20104;-37
2023/04/24 03:44:35;;;;;;;0.20;0.10;;;9.40;99.90;;;;;;5013737;28;20057;-36
2023/04/24 03:47:02;;;;;;;0.10;0.10;;;9.30;99.90;;;;;;5013964;28;20049;-37
2023/04/24 03:49:27;;;;;;;0.00;0.00;;;9.30;99.90;;;;;;5026057;28;20140;-36
2023/04/24 03:51:53;;;;;;;0.20;0.10;;;9.20;99.90;;;;;;5031128;28;20140;-37
2023/04/24 03:54:19;;;;;;;3.05;0.20;;;9.20;99.90;;;;;;5032546;28;20776;-36
2023/04/24 03:56:45;;;;;;;0.40;0.10;;;9.20;99.90;;;;;;5022662;28;20049;-36
2023/04/24 03:59:11;;;;;;;0.20;0.10;;;9.10;99.90;;;;;;5034562;28;20064;-36
2023/04/24 04:01:37;;;;;;;0.13;0.10;;;9.10;99.90;;;;;;5032059;28;20068;-36
2023/04/24 04:04:03;;;;;;;1.00;0.20;;;9.10;99.90;;;;;;5023517;28;20062;-37
2023/04/24 04:06:30;;;;;;;0.15;0.10;;;9.10;99.90;;;;;;5029389;28;20053;-37
2023/04/24 04:08:56;;;;;;;0.52;0.10;;;9.10;99.90;;;;;;5027124;28;20077;-36
2023/04/24 04:11:22;;;;;;;0.45;0.20;;;9.10;99.90;;;;;;5037978;28;20119;-35
2023/04/24 04:13:48;;;;;;;0.80;0.22;;;9.10;99.90;;;;;;5029736;28;20154;-36
2023/04/24 04:16:16;;;;;;;1.33;0.30;;;9.10;99.90;;;;;;5037061;28;20567;-36
2023/04/24 04:18:42;;;;;;;0.70;0.20;;;9.10;99.90;;;;;;5036229;28;20483;-36
2023/04/24 04:21:08;;;;;;;0.47;0.20;;;9.10;99.90;;;;;;5035094;28;20056;-37
2023/04/24 04:23:33;;;;;;;2.38;0.50;;;9.10;99.90;;;;;;5033332;28;20045;-37
2023/04/24 04:25:59;;;;;;;2.42;0.40;;;9.10;99.90;;;;;;5021570;28;20057;-37
2023/04/24 04:28:26;;;;;;;0.57;0.30;;;9.10;99.90;;;;;;5022482;28;20108;-36
2023/04/24 04:30:55;;;;;;;2.15;0.88;;;9.20;99.90;;;;;;5025522;28;20081;-37
2023/04/24 04:33:21;;;;;;;3.20;1.42;;;9.30;99.90;;;;;;5030825;28;20047;-36
2023/04/24 04:35:48;;;;;;;3.42;1.52;;;9.40;99.90;;;;;;5031396;28;20806;-36
2023/04/24 04:38:14;;;;;;;2.33;1.10;;;9.50;99.90;;;;;;5022354;28;20137;-37
2023/04/24 04:40:41;;;;;;;2.80;1.10;;;9.60;99.90;;;;;;5036355;28;20051;-37
2023/04/24 04:43:06;;;;;;;1.80;0.80;;;9.60;99.90;;;;;;5040748;28;20042;-36
2023/04/24 04:45:34;;;;;;;3.00;1.20;;;9.70;99.90;;;;;;5033186;28;20392;-38
2023/04/24 04:48:03;;;;;;;2.38;1.30;;;9.70;99.90;;;;;;5028413;28;20140;-36
2023/04/24 04:50:29;;;;;;;2.80;1.42;;;9.70;99.90;;;;;;5031782;28;20049;-37
2023/04/24 04:52:55;;;;;;;4.60;1.63;;;9.80;99.90;;;;;;5021143;28;20115;-37
2023/04/24 04:55:21;;;;;;;2.92;1.60;;;9.80;99.90;;;;;;5039059;28;20053;-37
2023/04/24 04:57:46;;;;;;;3.17;1.48;;;9.80;99.90;;;;;;5032044;28;20103;-39
2023/04/24 05:00:12;;;;;;;4.18;1.45;;;9.70;99.90;;;;;;5020321;28;20538;-38
2023/04/24 05:02:39;;;;;;;4.10;1.90;;;9.70;99.90;;;;;;5022532;28;20062;-38
2023/04/24 05:05:06;;;;;;;4.55;2.30;;;9.80;99.90;;;;;;5024658;28;20057;-37
2023/04/24 05:07:31;;;;;;;4.55;2.45;;;9.70;99.90;;;;;;5020650;28;20471;-37
2023/04/24 05:09:57;;;;;;;5.95;2.85;;;9.70;99.90;;;;;;5020679;28;20148;-36
2023/04/24 05:12:23;;;;;;;4.82;2.78;;;9.70;99.90;;;;;;5021715;28;20373;-36
2023/04/24 05:14:48;;;;;;;6.85;3.50;;;9.70;99.90;;;;;;5025976;28;20384;-36
2023/04/24 05:17:14;;;;;;;5.32;2.67;;;9.70;99.90;;;;;;5031554;28;20191;-36
2023/04/24 05:19:40;;;;;;;4.95;2.58;;;9.70;99.90;;;;;;5023869;28;20132;-36
2023/04/24 05:22:06;;;;;;;4.55;2.30;;;9.70;99.90;;;;;;5013081;28;20179;-36
2023/04/24 05:24:35;;;;;;;4.97;2.78;;;9.70;99.90;;;;;;5027176;28;20092;-36
2023/04/24 05:27:05;;;;;;;5.53;2.33;;;9.70;99.90;;;;;;5030889;28;20049;-36
2023/04/24 05:29:32;;;;;;;7.13;2.80;;;9.70;99.90;;;;;;5028101;28;20131;-36
2023/04/24 05:31:58;;;;;;;6.20;2.63;;;9.70;99.90;;;;;;5034235;28;20096;-37
2023/04/24 05:34:24;;;;;;;6.55;3.35;;;9.70;99.90;;;;;;5030342;28;20062;-37
2023/04/24 05:36:50;;;;;;;4.53;2.30;;;9.70;99.90;;;;;;5028805;28;20083;-36
2023/04/24 05:39:16;;;;;;;4.53;2.40;;;9.70;99.90;;;;;;5017656;28;20088;-36
2023/04/24 05:41:42;;;;;;;4.88;2.30;;;9.70;99.90;;;;;;5028300;28;20076;-36
2023/04/24 05:44:08;;;;;;;6.35;2.40;;;9.70;99.90;;;;;;5027289;28;20045;-34
2023/04/24 05:46:34;;;;;;;4.10;2.35;;;9.70;99.90;;;;;;5021571;28;20077;-36
2023/04/24 05:49:00;;;;;;;4.50;2.33;;;9.70;99.90;;;;;;5013631;28;20057;-36
2023/04/24 05:51:25;;;;;;;4.72;2.53;;;9.60;99.90;;;;;;4994668;28;20387;-37
2023/04/24 05:53:51;;;;;;;5.32;2.13;;;9.70;99.90;;;;;;5030800;28;20048;-37
2023/04/24 05:56:17;;;;;;;5.93;2.50;;;9.70;99.90;;;;;;5036405;28;20040;-36
2023/04/24 05:58:43;;;;;;;5.70;2.45;;;9.70;99.90;;;;;;5036897;28;20046;-37
2023/04/24 06:01:09;;;;;;;5.05;2.47;;;9.70;99.90;;;;;;5030290;28;20060;-37
2023/04/24 06:03:35;;;;;;;4.35;2.03;;;9.70;99.90;;;;;;5029144;28;20057;-36
2023/04/24 06:06:00;;;;;;;4.63;2.20;;;9.70;99.90;;;;;;5024593;28;20472;-37
2023/04/24 06:08:26;;;;;;;3.70;1.50;;;9.60;99.90;;;;;;5017082;28;20054;-37
2023/04/24 06:10:52;;;;;;;6.32;2.33;;;9.70;99.90;;;;;;5017549;28;20144;-37
2023/04/24 06:13:17;;;;;;;4.50;2.00;;;9.60;99.90;;;;;;5027911;28;20049;-36
2023/04/24 06:15:43;;;;;;;5.00;1.80;;;9.70;99.90;;;;;;5029080;28;20050;-37
2023/04/24 06:18:12;;;;;;;3.55;1.92;;;9.60;99.90;;;;;;5034648;28;20048;-37
2023/04/24 06:20:38;;;;;;;5.22;1.90;;;9.60;99.90;;;;;;5031816;28;20057;-37
2023/04/24 06:23:04;;;;;;;3.83;1.92;;;9.60;99.90;;;;;;5031484;28;20108;-37
2023/04/24 06:25:30;;;;;;;6.07;1.88;;;9.50;99.90;;;;;;5028540;28;20112;-36
2023/04/24 06:27:56;;;;;;;4.68;1.95;;;9.50;99.90;;;;;;5034745;28;20060;-37
2023/04/24 06:30:22;;;;;;;3.50;1.65;;;9.50;99.90;;;;;;5026111;28;20056;-36
2023/04/24 06:32:48;;;;;;;4.05;2.10;;;9.50;99.90;;;;;;5031871;28;20057;-37
2023/04/24 06:35:13;;;;;;;5.55;2.30;;;9.50;99.90;;;;;;5028618;28;21093;-37
2023/04/24 06:37:43;;;;;;;6.43;2.38;;;9.50;99.90;;;;;;5029664;28;20049;-38
2023/04/24 06:40:09;;;;;;;7.65;2.60;;;9.50;99.90;;;;;;5029293;28;20049;-37
2023/04/24 06:42:36;;;;;;;6.28;2.40;;;9.50;99.90;;;;;;5027620;28;20054;-37
2023/04/24 06:45:02;;;;;;;5.63;2.38;;;9.50;99.90;;;;;;5027590;28;20498;-37
2023/04/24 06:47:27;;;;;;;4.50;2.10;;;9.50;99.90;;;;;;5025030;28;20503;-36
2023/04/24 06:49:53;;;;;;;5.80;2.47;;;9.50;99.90;;;;;;5034680;28;20061;-37
2023/04/24 06:52:19;;;;;;;6.55;2.45;;;9.40;99.90;;;;;;5027514;28;20059;-37
2023/04/24 06:54:45;;;;;;;7.25;2.83;;;9.50;99.90;;;;;;5035125;28;20057;-37
2023/04/24 06:57:11;;;;;;;4.35;1.95;;;9.50;99.90;;;;;;5028711;28;20049;-36
2023/04/24 06:59:37;;;;;;;5.50;2.20;;;9.50;99.90;;;;;;5028127;28;20037;-36
2023/04/24 07:02:02;;;;;;;5.10;2.30;;;9.40;99.90;;;;;;5024185;28;20140;-37
2023/04/24 07:04:29;;;;;;;4.80;2.17;;;9.40;99.90;;;;;;5023721;28;20129;-37
2023/04/24 07:06:57;;;;;;;8.35;3.45;;;9.40;99.90;;;;;;5027870;28;20053;-37
2023/04/24 07:09:25;;;;;;;4.32;2.10;;;9.40;99.90;;;;;;5029549;28;20423;-37
2023/04/24 07:11:51;;;;;;;4.57;1.98;;;9.40;99.90;;;;;;5030890;28;20056;-37
2023/04/24 07:14:17;;;;;;;4.15;1.80;;;9.40;99.90;;;;;;5026285;28;20045;-37
2023/04/24 07:16:43;;;;;;;5.40;1.60;;;9.40;99.90;;;;;;5023740;28;20049;-37
2023/04/24 07:19:09;;;;;;;5.07;1.40;;;9.40;99.90;;;;;;5028500;28;20501;-37
2023/04/24 07:21:35;;;;;;;2.88;1.70;;;9.40;99.90;;;;;;5031626;28;20045;-36
2023/04/24 07:24:01;;;;;;;4.18;1.90;;;9.40;99.90;;;;;;5027290;28;20059;-37
2023/04/24 07:26:28;;;;;;;5.35;1.75;;;9.40;99.90;;;;;;5025673;28;20127;-37
2023/04/24 07:28:54;;;;;;;4.47;1.33;;;9.40;99.90;;;;;;5030962;28;20049;-37
2023/04/24 07:31:20;;;;;;;3.97;1.73;;;9.40;99.90;;;;;;5024878;28;20788;-37
2023/04/24 07:33:46;;;;;;;4.72;1.70;;;9.40;99.90;;;;;;5030225;28;20061;-37
2023/04/24 07:36:15;;;;;;;6.25;1.88;;;9.40;99.90;;;;;;5029519;28;20098;-37
2023/04/24 07:38:48;;;;;;;4.25;1.50;;;9.40;99.90;;;;;;5024120;28;20092;-37
2023/04/24 07:41:14;;;;;;;4.38;1.70;;;9.50;99.90;;;;;;5020569;28;20098;-36
2023/04/24 07:43:41;;;;;;;5.75;2.28;;;9.50;99.90;;;;;;5028372;28;20050;-36
2023/04/24 07:46:08;;;;;;;6.57;2.17;;;9.50;99.90;;;;;;5028423;28;20048;-37
2023/04/24 07:48:34;;;;;;;7.55;2.38;;;9.50;99.90;;;;;;5030431;28;20045;-36
2023/04/24 07:50:59;;;;;;;9.60;3.25;;;9.50;99.90;;;;;;5034826;28;20041;-37
2023/04/24 07:53:25;;;;;;;10.38;4.50;;;9.50;99.90;;;;;;5029347;28;20056;-37
2023/04/24 07:55:51;;;;;;;14.38;6.10;;;9.50;99.90;;;;;;5026166;28;20108;-36
2023/04/24 07:58:16;;;;;;;14.38;6.32;;;9.50;99.90;;;;;;5023962;28;20487;-36
2023/04/24 08:00:42;;;;;;;12.30;5.95;;;9.40;99.90;;;;;;5021758;28;20080;-36
2023/04/24 08:03:08;;;;;;;12.57;6.25;;;9.40;99.90;;;;;;5024759;28;20052;-36
2023/04/24 08:05:34;;;;;;;13.82;6.00;;;9.30;99.90;;;;;;5023364;28;20502;-36
2023/04/24 08:07:59;;;;;;;13.55;6.75;;;9.30;99.90;;;;;;5019991;28;20136;-36
2023/04/24 08:10:25;;;;;;;15.88;7.75;;;9.20;99.90;;;;;;5025759;28;22400;-36
2023/04/24 08:12:51;;;;;;;11.93;6.68;;;9.20;99.90;;;;;;5024170;28;20053;-36
2023/04/24 08:15:17;;;;;;;16.25;7.15;;;9.20;99.90;;;;;;5024314;28;20057;-36
2023/04/24 08:17:42;;;;;;;16.58;7.38;;;9.20;99.90;;;;;;5028553;28;20053;-36
2023/04/24 08:20:13;;;;;;;18.50;7.47;;;9.20;99.90;;;;;;5025007;28;20481;-35
2023/04/24 08:22:42;;;;;;;15.50;7.40;;;9.10;99.90;;;;;;5026647;28;20053;-36
2023/04/24 08:25:09;;;;;;;14.73;7.25;;;9.10;99.90;;;;;;5029908;28;20049;-37
2023/04/24 08:27:36;;;;;;;13.88;7.28;;;9.10;99.90;;;;;;5033404;28;20150;-36
2023/04/24 08:30:03;;;;;;;15.13;7.53;;;9.00;99.90;;;;;;5028088;28;20211;-36
2023/04/24 08:32:28;;;;;;;14.82;7.03;;;8.90;99.90;;;;;;5025261;28;20623;-36
2023/04/24 08:34:56;;;;;;;14.88;6.03;;;8.90;99.90;;;;;;5033149;28;20148;-36
2023/04/24 08:37:26;;;;;;;12.68;6.05;;;8.90;99.90;;;;;;5025592;28;20480;-36
2023/04/24 08:39:52;;;;;;;8.63;5.43;;;8.80;99.90;;;;;;5031338;28;20188;-36
2023/04/24 08:42:18;;;;;;;10.07;5.88;;;8.80;99.90;;;;;;5025444;28;20057;-36
2023/04/24 08:44:45;;;;;;;7.22;4.82;;;8.80;99.90;;;;;;5018429;28;20613;-36
2023/04/24 08:47:11;;;;;;;11.35;4.72;;;8.80;99.90;;;;;;5020792;28;20510;-37
2023/04/24 08:49:38;;;;;;;12.05;4.88;;;8.80;99.90;;;;;;5024523;28;20411;-36
2023/04/24 08:52:05;;;;;;;13.27;5.00;;;8.80;99.90;;;;;;5021861;28;20049;-36
2023/04/24 08:54:31;;;;;;;11.75;5.05;;;8.80;99.90;;;;;;5022407;28;20049;-36
2023/04/24 08:57:01;;;;;;;9.75;5.05;;;8.80;99.90;;;;;;5026585;28;20045;-37
2023/04/24 08:59:35;;;;;;;11.75;5.32;;;8.90;99.90;;;;;;5015627;28;20427;-37
2023/04/24 09:02:03;;;;;;;12.15;5.28;;;9.00;99.90;;;;;;5016400;28;20085;-37
2023/04/24 09:04:29;;;;;;;9.40;4.45;;;9.00;99.90;;;;;;5023426;28;20057;-36
2023/04/24 09:06:56;;;;;;;16.40;5.65;;;9.00;99.90;;;;;;5029450;28;20059;-36
2023/04/24 09:09:23;;;;;;;11.63;4.65;;;9.10;99.90;;;;;;5026639;28;20053;-36
2023/04/24 09:11:50;;;;;;;11.32;4.53;;;9.20;99.90;;;;;;5023040;28;20076;-36
2023/04/24 09:14:17;;;;;;;14.65;4.60;;;9.30;99.90;;;;;;5022206;28;20060;-36
2023/04/24 09:16:42;;;;;;;9.60;3.55;;;9.40;99.90;;;;;;5021903;28;20052;-36
2023/04/24 09:19:08;;;;;;;7.60;3.03;;;9.50;99.90;;;;;;5020186;28;20053;-36
2023/04/24 09:21:35;;;;;;;7.82;2.88;;;9.50;99.90;;;;;;5028147;28;20053;-36
2023/04/24 09:24:03;;;;;;;9.57;3.42;;;9.60;99.90;;;;;;5024723;28;20414;-36
2023/04/24 09:26:34;;;;;;;10.60;2.83;;;9.50;99.90;;;;;;5028351;28;20072;-36
2023/04/24 09:29:00;;;;;;;9.30;2.67;;;9.50;99.90;;;;;;5021592;28;20594;-36
2023/04/24 09:31:28;;;;;;;5.93;2.13;;;9.50;99.90;;;;;;5024046;28;20115;-36
2023/04/24 09:34:07;;;;;;;9.35;2.40;;;9.50;99.90;;;;;;5023119;28;20502;-36
2023/04/24 09:36:41;;;;;;;6.75;2.40;;;9.50;99.90;;;;;;5027089;28;20056;-35
2023/04/24 09:39:12;;;;;;;7.78;2.83;;;9.50;99.90;;;;;;5026317;28;20127;-36
2023/04/24 09:41:58;;;;;;;7.75;2.38;;;9.60;99.90;;;;;;5031496;28;20486;-35
2023/04/24 09:44:28;;;;;;;8.23;3.28;;;9.70;99.90;;;;;;5013746;28;20048;-36
2023/04/24 09:46:56;;;;;;;6.32;2.75;;;9.70;99.90;;;;;;5033116;28;20061;-36
2023/04/24 09:49:28;;;;;;;6.88;2.20;;;9.70;99.90;;;;;;5030832;28;20361;-37
2023/04/24 09:52:06;;;;;;;7.75;2.58;;;9.60;99.90;;;;;;5028765;28;20418;-37
2023/04/24 09:54:32;;;;;;;5.70;1.40;;;9.50;99.90;;;;;;5009061;28;20054;-40
2023/04/24 09:57:00;;;;;;;6.63;1.33;;;9.40;99.90;;;;;;5023219;28;20497;-36
2023/04/24 09:59:26;;;;;;;4.43;1.13;;;9.30;99.90;;;;;;5024802;28;20385;-36
2023/04/24 10:01:52;;;;;;;10.07;1.38;;;9.20;99.90;;;;;;5012379;28;20054;-36
2023/04/24 10:04:25;;;;;;;4.90;1.45;;;9.10;99.90;;;;;;5025341;28;20525;-39
2023/04/24 10:06:52;;;;;;;5.38;1.25;;;9.10;99.90;;;;;;5030495;28;20517;-35
2023/04/24 10:09:20;;;;;;;4.65;1.45;;;9.10;99.90;;;;;;5025057;28;20491;-36
2023/04/24 10:11:48;;;;;;;6.53;1.25;;;9.10;99.90;;;;;;5021624;28;20476;-35
2023/04/24 10:14:16;;;;;;;3.47;1.30;;;9.20;99.90;;;;;;5029519;28;20063;-34
2023/04/24 10:16:43;;;;;;;3.25;1.05;;;9.20;99.90;;;;;;5030087;28;20041;-35
2023/04/24 10:19:11;;;;;;;3.60;1.25;;;9.20;99.90;;;;;;5024873;28;20100;-35
2023/04/24 10:21:42;;;;;;;9.60;1.60;;;9.30;99.90;;;;;;5028983;28;20053;-36
2023/04/24 10:24:09;;;;;;;5.63;1.00;;;9.30;99.90;;;;;;5023668;28;20594;-37
2023/04/24 10:26:35;;;;;;;7.38;1.98;;;9.40;99.90;;;;;;5021173;28;20321;-36
2023/04/24 10:29:01;;;;;;;4.93;1.88;;;9.40;99.90;;;;;;5033232;28;20127;-36
2023/04/24 10:31:32;;;;;;;5.03;1.77;;;9.40;99.90;;;;;;5030199;28;20617;-35
2023/04/24 10:33:59;;;;;;;8.30;1.10;;;9.50;99.90;;;;;;5030437;28;20037;-36
2023/04/24 10:36:27;;;;;;;9.00;1.38;;;9.50;99.90;;;;;;5026090;28;20385;-36
2023/04/24 10:38:55;;;;;;;8.48;1.40;;;9.60;99.90;;;;;;5028289;28;20183;-36
2023/04/24 10:41:23;;;;;;;10.38;1.23;;;9.70;99.90;;;;;;5024645;28;20590;-35
2023/04/24 10:44:09;;;;;;;9.15;1.52;;;9.80;99.90;;;;;;5031172;28;20121;-36
2023/04/24 10:46:36;;;;;;;6.70;1.00;;;9.90;99.90;;;;;;5030601;28;20411;-36
2023/04/24 10:49:08;;;;;;;5.75;1.20;;;10.00;99.90;;;;;;5025215;28;20560;-36
2023/04/24 10:51:54;;;;;;;5.35;1.02;;;10.10;99.90;;;;;;5011832;28;20144;-36
2023/04/24 10:54:34;;;;;;;5.97;1.52;;;10.20;99.90;;;;;;5014927;28;20045;-36
2023/04/24 10:57:18;;;;;;;6.35;1.25;;;10.30;99.90;;;;;;5029327;28;20049;-36
2023/04/24 10:59:44;;;;;;;3.38;0.57;;;10.40;99.90;;;;;;5016151;28;20054;-36
2023/04/24 11:02:10;;;;;;;3.78;0.63;;;10.40;99.90;;;;;;5011154;28;20559;-35
2023/04/24 11:04:36;;;;;;;2.38;0.73;;;10.30;99.90;;;;;;5028118;28;20076;-37
2023/04/24 11:07:04;;;;;;;5.75;0.80;;;10.40;99.90;;;;;;5035480;28;20045;-36
2023/04/24 11:09:31;;;;;;;4.63;0.50;;;10.40;99.90;;;;;;5035990;28;20071;-36
2023/04/24 11:12:10;;;;;;;2.72;0.63;;;10.30;99.90;;;;;;5025382;28;20405;-37
2023/04/24 11:14:59;;;;;;;2.88;0.70;;;10.30;99.90;;;;;;5036097;28;20494;-37
2023/04/24 11:17:33;;;;;;;3.85;0.57;;;10.30;99.90;;;;;;5023282;28;20061;-37
2023/04/24 11:20:09;;;;;;;5.25;0.75;;;10.20;99.90;;;;;;5017678;28;20511;-37
2023/04/24 11:22:37;;;;;;;5.03;1.20;;;10.20;99.90;;;;;;5020629;28;20073;-37
2023/04/24 11:25:04;;;;;;;5.30;1.17;;;10.20;99.90;;;;;;5024139;28;20061;-37
2023/04/24 11:27:32;;;;;;;6.70;1.25;;;10.20;99.90;;;;;;5030722;28;20069;-36
2023/04/24 11:29:57;;;;;;;3.50;0.70;;;10.10;99.90;;;;;;5026547;28;20061;-36
2023/04/24 11:32:24;;;;;;;3.15;1.00;;;10.00;99.90;;;;;;5019049;28;20064;-35
2023/04/24 11:34:52;;;;;;;7.15;0.90;;;9.90;99.90;;;;;;5018311;28;20095;-36
2023/04/24 11:37:18;;;;;;;3.63;0.70;;;9.90;99.90;;;;;;5028240;28;20096;-37
2023/04/24 11:39:44;;;;;;;2.67;0.73;;;9.80;99.90;;;;;;5020512;28;20057;-36
2023/04/24 11:42:10;;;;;;;4.88;0.93;;;9.70;99.90;;;;;;5028705;28;20511;-37
2023/04/24 11:44:39;;;;;;;3.05;0.60;;;9.70;99.90;;;;;;5026767;28;20051;-40
2023/04/24 11:47:08;;;;;;;2.70;0.57;;;9.60;99.90;;;;;;5022876;28;20053;-36
2023/04/24 11:49:36;;;;;;;2.22;0.30;;;9.70;99.90;;;;;;5026677;28;20061;-36
2023/04/24 11:52:02;;;;;;;0.95;0.45;;;9.60;99.90;;;;;;5014197;28;20124;-36
2023/04/24 11:54:28;;;;;;;3.88;1.05;;;9.60;99.90;;;;;;5013225;28;20046;-36
2023/04/24 11:56:54;;;;;;;2.95;0.63;;;9.50;99.90;;;;;;5011967;28;20061;-36
2023/04/24 11:59:19;;;;;;;3.88;0.60;;;9.50;99.90;;;;;;5032502;28;20053;-36
2023/04/24 12:01:46;;;;;;;1.65;0.30;;;9.50;99.90;;;;;;5026724;28;20049;-36
2023/04/24 12:04:13;;;;;;;2.08;0.43;;;9.60;99.90;;;;;;5032165;28;20104;-36
2023/04/24 12:06:38;;;;;;;5.45;0.50;;;9.50;99.90;;;;;;5029892;28;20064;-35
2023/04/24 12:09:04;;;;;;;3.35;1.02;;;9.60;99.90;;;;;;5031780;28;20057;-37
2023/04/24 12:11:30;;;;;;;1.83;0.30;;;9.60;99.90;;;;;;5015421;28;20081;-36
2023/04/24 12:13:56;;;;;;;3.50;0.55;;;9.70;99.90;;;;;;5022615;28;20107;-36
2023/04/24 12:16:23;;;;;;;1.13;0.30;;;9.90;99.90;;;;;;5021959;28;20102;-36
2023/04/24 12:18:51;;;;;;;1.40;0.30;;;9.90;99.90;;;;;;5023081;28;20336;-36
2023/04/24 12:21:19;;;;;;;1.77;0.40;;;9.80;99.90;;;;;;5018365;28;20194;-35
2023/04/24 12:23:45;;;;;;;3.80;0.40;;;9.80;99.90;;;;;;5026023;28;20045;-36
2023/04/24 12:26:12;;;;;;;1.83;0.30;;;9.70;99.90;;;;;;5012986;28;20050;-36
2023/04/24 12:28:40;;;;;;;1.05;0.30;;;9.70;99.90;;;;;;5011629;28;20113;-35
2023/04/24 12:31:07;;;;;;;4.80;0.50;;;9.70;99.90;;;;;;5023656;28;20076;-34
2023/04/24 12:33:34;;;;;;;4.30;0.55;;;9.60;99.90;;;;;;5022541;28;20492;-34
2023/04/24 12:36:00;;;;;;;4.65;0.65;;;9.60;99.90;;;;;;5024846;28;20140;-34
2023/04/24 12:38:29;;;;;;;2.88;1.17;;;9.50;99.90;;;;;;5037181;28;20499;-34
2023/04/24 12:41:04;;;;;;;5.10;0.60;;;9.40;99.90;;;;;;5024611;28;20484;-35
2023/04/24 12:43:30;;;;;;;4.80;0.55;;;9.50;99.90;;;;;;5008337;28;20054;-34
2023/04/24 12:45:56;;;;;;;6.30;0.50;;;9.50;99.90;;;;;;5026787;28;20349;-34
2023/04/24 12:48:22;;;;;;;5.30;1.10;;;9.60;99.90;;;;;;5030317;28;20049;-34
2023/04/24 12:50:48;;;;;;;4.22;0.52;;;9.70;99.90;;;;;;5022755;28;20045;-34